Tamassee, South Carolina
Current Conditions -  °F | °C
As of 5:54 AM on Tuesday 21 Oct 2014 (Local Time) from KCEU Reporting Station
Clear Clear  
Wind Chill: 53°   Ceiling: Unl
Heat Index: 53°   Visibility: 10mi
Dew Point: 48°   Wind: 3mph
Humidity: 83%   Direction: 260°W
Pressure: 29.97"   Gusts: NA
Location:  34.88°N, 83.02°W
Report Text: KCEU 210954Z AUTO 26003KT 10SM CLR 12/09 A2997 RMK AO2 SLP144 T01170089
Loading
Personal Weather Stations






























Interactive Weather Map
Tropical Storm Tracking
New forecast layout! Learn more

10-Day Weather Forecast

Advertisements
Track Severe Weather on mobile